Flight Track Log - Related Links

Times and Time Zones

All times are in EDT time to prevent confusion due to time zone crossing. See the CES2376 flight status page for this flight to view local times or setup timezone preferences in your user account.

Time Position Orientation Groundspeed Altitude Reporting Facility
EDT Latitude Longitude Course Direction KTS MPH feet Rate Location/Type
Sat 03:46:00 AM 36.1085 97.9296 96° East  Level Estimated
Sat 03:47:00 AM 36.0940 98.0657 97° East  Level Estimated
Sat 03:48:00 AM 36.0793 98.2018 98° East  Level Estimated
Sat 03:49:00 AM 36.0645 98.3378 98° East  Level Estimated
Sat 03:50:00 AM 36.0495 98.4738 98° East  Level Estimated
Sat 03:51:00 AM 36.0343 98.6097 98° East  Level Estimated
Sat 03:52:00 AM 36.0190 98.7455 98° East  Level Estimated
Sat 03:53:00 AM 36.0036 98.8813 98° East  Level Estimated
Sat 03:54:00 AM 35.9880 99.0171 98° East  Level Estimated
Sat 03:55:00 AM 35.9722 99.1528 98° East  Level Estimated
Sat 03:56:00 AM 35.9563 99.2884 98° East  Level Estimated
Sat 03:57:00 AM 35.9402 99.4240 98° East  Level Estimated
Sat 03:58:00 AM 35.9240 99.5596 98° East  Level Estimated
Sat 03:59:00 AM 35.9076 99.6950 98° East  Level Estimated
Sat 04:00:00 AM 35.8911 99.8305 99° East  Level Estimated
Sat 04:01:00 AM 35.8744 99.9658 99° East  Level Estimated
Sat 04:02:00 AM 35.8576 100.1011 99° East  Level Estimated
Sat 04:03:00 AM 35.8406 100.2364 99° East  Level Estimated
Sat 04:04:00 AM 35.8235 100.3716 99° East  Level Estimated
Sat 04:05:00 AM 35.8062 100.5067 99° East  Level Estimated
Sat 04:06:00 AM 35.7888 100.6418 99° East  Level Estimated
Sat 04:07:00 AM 35.7712 100.7768 99° East  Level Estimated
Sat 04:08:00 AM 35.7535 100.9117 99° East  Level Estimated
Sat 04:09:00 AM 35.7356 101.0466 99° East  Level Estimated
Sat 04:10:00 AM 35.7176 101.1814 99° East  Level Estimated
Sat 04:11:00 AM 35.6994 101.3162 99° East  Level Estimated
Sat 04:12:00 AM 35.6811 101.4509 99° East  Level Estimated
Sat 04:13:00 AM 35.6626 101.5856 100° East  Level Estimated
Sat 04:14:00 AM 35.6440 101.7202 100° East  Level Estimated
Sat 04:15:00 AM 35.6252 101.8547 100° East  Level Estimated
Sat 04:16:00 AM 35.6062 101.9892 100° East  Level Estimated
Sat 04:17:00 AM 35.5872 102.1235 100° East  Level Estimated
Sat 04:18:00 AM 35.5679 102.2579 100° East  Level Estimated
Sat 04:19:00 AM 35.5485 102.3921 100° East  Level Estimated
Sat 04:20:00 AM 35.5290 102.5263 100° East  Level Estimated
Sat 04:21:00 AM 35.5093 102.6605 100° East  Level Estimated
Sat 04:22:00 AM 35.4895 102.7945 100° East  Level Estimated
Sat 04:23:00 AM 35.4695 102.9286 100° East  Level Estimated
Sat 04:24:00 AM 35.4494 103.0625 100° East  Level Estimated
Sat 04:25:00 AM 35.4291 103.1964 100° East  Level Estimated
Sat 04:26:00 AM 35.4087 103.3302 101° East  Level Estimated
Sat 04:27:00 AM 35.3881 103.4639 101° East  Level Estimated
Sat 04:28:00 AM 35.3674 103.5975 101° East  Level Estimated
Sat 04:29:00 AM 35.3466 103.7311 101° East  Level Estimated
Sat 04:30:00 AM 35.3256 103.8647 101° East  Level Estimated
Sat 04:31:00 AM 35.3044 103.9981 101° East  Level Estimated
Sat 04:32:00 AM 35.2831 104.1315 101° East  Level Estimated
Sat 04:33:00 AM 35.2617 104.2648 101° East  Level Estimated
Sat 04:34:00 AM 35.2401 104.3981 101° East  Level Estimated
Sat 04:35:00 AM 35.2183 104.5313 101° East  Level Estimated
Sat 04:36:00 AM 35.1964 104.6644 101° East  Level Estimated
Sat 04:37:00 AM 35.1744 104.7974 101° East  Level Estimated
Sat 04:38:00 AM 35.1522 104.9304 101° East  Level Estimated
Sat 04:39:00 AM 35.1299 105.0632 102° East  Level Estimated
Sat 04:40:00 AM 35.1074 105.1961 102° East  Level Estimated
Sat 04:41:00 AM 35.0848 105.3288 102° East  Level Estimated
Sat 04:42:00 AM 35.0621 105.4615 102° East  Level Estimated
Sat 04:43:00 AM 35.0392 105.5941 102° East  Level Estimated
Sat 04:44:00 AM 35.0161 105.7266 102° East  Level Estimated
Sat 04:45:00 AM 34.9930 105.8590 102° East  Level Estimated
Sat 04:46:00 AM 34.9696 105.9914 102° East  Level Estimated
Sat 04:47:00 AM 34.9461 106.1237 102° East  Level Estimated
Sat 04:48:00 AM 34.9225 106.2559 102° East  Level Estimated
Sat 04:49:00 AM 34.8988 106.3880 102° East  Level Estimated
Sat 04:50:00 AM 34.8749 106.5201 102° East  Level Estimated
Sat 04:51:00 AM 34.8508 106.6521 102° East  Level Estimated
Sat 04:52:00 AM 34.8266 106.7840 103° East  Level Estimated
Sat 04:53:00 AM 34.8023 106.9158 103° East  Level Estimated
Sat 04:54:00 AM 34.7778 107.0476 103° East  Level Estimated
Sat 04:55:00 AM 34.7532 107.1793 103° East  Level Estimated
Sat 04:56:00 AM 34.7284 107.3109 103° East  Level Estimated
Sat 04:57:00 AM 34.7035 107.4424 103° East  Level Estimated
Sat 04:58:00 AM 34.6785 107.5738 103° East  Level Estimated
Sat 04:59:00 AM 34.6533 107.7052 103° East  Level Estimated
Sat 05:00:00 AM 34.6280 107.8364 103° East  Level Estimated
Sat 05:01:00 AM 34.6025 107.9677 103° East  Level Estimated
Sat 05:02:00 AM 34.5769 108.0988 103° East  Level Estimated
Sat 05:03:00 AM 34.5512 108.2298 103° East  Level Estimated
Sat 05:04:00 AM 34.5253 108.3607 103° East  Level Estimated
Sat 05:05:00 AM 34.4993 108.4916 104° East  Level Estimated
Sat 05:06:00 AM 34.4731 108.6224 104° East  Level Estimated
Sat 05:07:00 AM 34.4471 108.7516 104° East  Level Estimated
Sat 05:08:00 AM 34.4471 108.7516 121° Southeast  Level Estimated
Sat 05:09:00 AM 34.4471 108.7516 121° Southeast  Level Estimated
Sat 05:10:00 AM 34.4471 108.7516 121° Southeast  Level Estimated
Sat 05:11:00 AM 34.4471 108.7516 121° Southeast  Level Estimated
Sat 05:12:00 AM 34.4471 108.7516 121° Southeast  Level Estimated
Sat 05:13:00 AM 34.4471 108.7516 121° Southeast  Level Estimated
Sat 05:14:00 AM 34.4471 108.7516 121° Southeast  Level Estimated
Sat 05:15:00 AM 34.4471 108.7516 121° Southeast  Level Estimated
Sat 05:16:00 AM 34.4471 108.7516 121° Southeast  Level Estimated
Sat 05:17:00 AM 34.4471 108.7516 121° Southeast  Level Estimated
Sat 05:18:00 AM 34.4471 108.7516 121° Southeast  Level Estimated
Sat 05:19:00 AM 34.4471 108.7516 121° Southeast  Level Estimated
Sat 05:20:00 AM 34.4471 108.7516 121° Southeast  Level Estimated
Sat 05:21:00 AM 34.4471 108.7516 121° Southeast  Level Estimated

Login

Don't have an account? Register now (free) for customized features, flight alerts, and more!